Time;durP1;ratioP1;P1;durP2;ratioP2;P2;SDS_P1;SDS_P2;PMS_P1;PMS_P2;Temp;Humidity;BMP_temperature;BMP_pressure;BME280_temperature;BME280_humidity;BME280_pressure;Samples;Min_cycle;Max_cycle;Signal;HPM_P1;HPM_P2
2021/01/21 00:01:49;;;;;;;4.95;1.40;;;;;;;7.76;86.93;98752.25;5223315;28;20021;-80
2021/01/21 00:04:20;;;;;;;4.38;1.50;;;;;;;7.74;87.49;98741.09;5222638;28;20098;-80
2021/01/21 00:06:50;;;;;;;4.72;1.25;;;;;;;7.81;86.69;98745.03;5223731;28;20614;-80
2021/01/21 00:09:20;;;;;;;5.43;1.50;;;;;;;7.80;86.65;98745.13;5223323;28;20548;-80
2021/01/21 00:11:51;;;;;;;4.10;1.45;;;;;;;7.81;87.41;98736.41;5223256;28;20017;-81
2021/01/21 00:14:21;;;;;;;6.03;1.58;;;;;;;7.86;85.30;98734.41;5223841;28;20053;-80
2021/01/21 00:16:51;;;;;;;5.15;1.40;;;;;;;7.94;85.38;98737.41;5223792;28;20104;-82
2021/01/21 00:19:21;;;;;;;2.75;1.33;;;;;;;7.97;85.14;98732.91;5223528;28;20060;-81
2021/01/21 00:21:52;;;;;;;3.25;1.40;;;;;;;7.97;84.50;98722.50;5225495;28;20021;-81
2021/01/21 00:24:22;;;;;;;5.10;1.35;;;;;;;8.04;83.89;98723.81;5222992;28;20028;-80
2021/01/21 00:26:52;;;;;;;5.13;1.42;;;;;;;8.09;83.67;98713.19;5223529;28;20399;-81
2021/01/21 00:29:23;;;;;;;6.15;1.33;;;;;;;7.95;84.65;98715.69;5223437;28;20028;-81
2021/01/21 00:31:53;;;;;;;5.07;1.52;;;;;;;7.96;84.11;98714.75;5222947;28;20025;-81
2021/01/21 00:34:24;;;;;;;4.68;1.50;;;;;;;7.83;85.95;98704.19;5222435;28;20021;-80
2021/01/21 00:36:55;;;;;;;5.20;1.50;;;;;;;7.77;85.82;98704.53;5222080;28;20392;-81
2021/01/21 00:39:25;;;;;;;5.57;1.42;;;;;;;7.71;86.36;98688.44;5204928;28;20091;-81
2021/01/21 00:41:55;;;;;;;4.40;1.45;;;;;;;7.54;87.18;98686.72;5222084;28;20033;-80
2021/01/21 00:44:25;;;;;;;7.93;1.60;;;;;;;7.46;88.07;98685.44;5226387;28;20029;-81
2021/01/21 00:46:56;;;;;;;4.20;1.40;;;;;;;7.45;88.40;98676.84;5226395;28;20016;-81
2021/01/21 00:49:26;;;;;;;5.82;1.42;;;;;;;7.48;87.98;98670.63;5226727;28;20025;-82
2021/01/21 00:51:56;;;;;;;5.82;1.35;;;;;;;7.69;87.42;98669.47;5226645;28;20361;-80
2021/01/21 00:54:26;;;;;;;2.95;1.20;;;;;;;7.82;86.51;98671.31;5226321;28;20078;-82
2021/01/21 00:56:57;;;;;;;7.15;1.48;;;;;;;7.70;88.02;98666.78;5226565;28;20068;-81
2021/01/21 00:59:27;;;;;;;6.20;1.40;;;;;;;7.60;88.17;98660.44;5226708;28;20024;-80
2021/01/21 01:01:57;;;;;;;4.32;1.35;;;;;;;7.69;87.15;98648.69;5218435;28;20013;-82
2021/01/21 01:04:28;;;;;;;7.22;1.42;;;;;;;7.73;87.15;98638.00;5222875;28;20109;-81
2021/01/21 01:06:58;;;;;;;3.00;1.15;;;;;;;7.88;86.70;98633.75;5235776;28;20020;-81
2021/01/21 01:09:28;;;;;;;5.03;1.40;;;;;;;8.03;86.10;98625.91;5231097;28;20021;-80
2021/01/21 01:11:59;;;;;;;5.25;1.40;;;;;;;8.30;84.12;98615.72;5225101;28;20507;-80
2021/01/21 01:14:29;;;;;;;6.32;1.25;;;;;;;8.59;82.33;98613.09;5225803;28;20074;-80
2021/01/21 01:16:59;;;;;;;4.15;1.20;;;;;;;8.69;82.20;98611.63;5224693;28;20746;-81
2021/01/21 01:19:29;;;;;;;4.85;1.42;;;;;;;8.75;81.13;98613.88;5209197;28;20021;-81
2021/01/21 01:21:59;;;;;;;3.90;1.20;;;;;;;8.91;80.30;98614.63;5226324;28;20021;-80
2021/01/21 01:24:30;;;;;;;4.72;1.30;;;;;;;9.01;80.11;98613.16;5226934;28;20025;-81
2021/01/21 01:27:00;;;;;;;8.20;1.80;;;;;;;9.01;79.46;98602.75;5227120;28;20029;-80
2021/01/21 01:29:32;;;;;;;7.30;1.50;;;;;;;9.05;79.15;98604.22;5230063;28;20024;-80
2021/01/21 01:32:02;;;;;;;6.00;1.45;;;;;;;9.11;78.67;98606.47;5226215;28;20021;-80
2021/01/21 01:34:33;;;;;;;3.13;1.02;;;;;;;9.18;78.22;98607.75;5226305;28;20039;-80
2021/01/21 01:37:04;;;;;;;3.47;1.33;;;;;;;9.21;78.29;98607.56;5229435;28;20029;-81
2021/01/21 01:39:34;;;;;;;8.15;1.60;;;;;;;9.19;78.86;98597.25;5226178;28;20502;-80
2021/01/21 01:42:10;;;;;;;5.47;1.40;;;;;;;9.25;78.59;98589.03;5225755;28;20029;-80
2021/01/21 01:44:40;;;;;;;5.03;1.30;;;;;;;9.23;78.31;98590.91;5226274;28;20499;-82
2021/01/21 01:47:10;;;;;;;5.68;1.30;;;;;;;9.30;76.94;98588.78;5226950;28;20029;-81
2021/01/21 01:49:41;;;;;;;4.13;1.23;;;;;;;9.33;76.69;98604.22;5226572;28;20033;-81
2021/01/21 01:52:12;;;;;;;2.50;1.20;;;;;;;9.28;77.08;98598.47;5226429;28;20100;-81
2021/01/21 01:54:42;;;;;;;10.25;1.50;;;;;;;9.40;76.24;98584.63;5225698;28;20032;-82
2021/01/21 01:57:12;;;;;;;2.60;1.23;;;;;;;9.29;76.23;98594.91;5229490;28;20025;-81
2021/01/21 01:59:43;;;;;;;4.93;1.23;;;;;;;9.35;76.36;98584.09;5222550;28;20056;-80
2021/01/21 02:02:13;;;;;;;5.57;1.30;;;;;;;9.31;76.86;98588.66;5225552;28;20109;-81
2021/01/21 02:04:45;;;;;;;2.40;1.08;;;;;;;9.32;76.42;98572.09;5225947;28;20056;-81
2021/01/21 02:07:16;;;;;;;3.22;1.38;;;;;;;9.28;76.80;98572.41;5224768;28;20028;-82
2021/01/21 02:09:46;;;;;;;9.00;1.55;;;;;;;9.21;77.10;98581.50;5225861;28;20029;-81
2021/01/21 02:12:48;;;;;;;4.22;1.30;;;;;;;9.28;75.75;98573.22;5224698;28;20025;-80
2021/01/21 02:15:40;;;;;;;6.15;1.35;;;;;;;9.21;77.54;98555.44;5207458;28;20495;-81
2021/01/21 02:18:23;;;;;;;6.07;1.60;;;;;;;9.13;77.25;98557.72;5225653;28;20033;-81
2021/01/21 02:21:24;;;;;;;3.00;1.10;;;;;;;9.22;76.76;98546.69;5225717;28;20027;-81
2021/01/21 02:24:13;;;;;;;3.30;1.50;;;;;;;9.19;76.25;98546.91;5225418;28;20550;-81
2021/01/21 02:26:49;;;;;;;4.57;1.38;;;;;;;9.27;74.91;98535.06;5225599;28;20027;-80
2021/01/21 02:29:19;;;;;;;4.05;1.20;;;;;;;9.24;76.27;98532.66;5225014;28;20487;-81
2021/01/21 02:31:59;;;;;;;3.50;1.08;;;;;;;9.23;76.99;98527.53;5225173;28;20017;-80
2021/01/21 02:34:38;;;;;;;5.57;1.30;;;;;;;9.15;76.78;98535.00;5216299;28;20082;-82
2021/01/21 02:37:14;;;;;;;2.78;1.25;;;;;;;9.16;76.37;98526.25;5224029;28;20108;-80
2021/01/21 02:39:48;;;;;;;4.07;1.48;;;;;;;9.14;76.43;98531.53;5223588;28;20570;-81
2021/01/21 02:42:19;;;;;;;4.63;1.30;;;;;;;9.15;76.52;98509.75;5224891;28;20666;-80
2021/01/21 02:44:49;;;;;;;7.07;1.40;;;;;;;9.06;77.10;98506.91;5224870;28;20057;-80
2021/01/21 02:47:22;;;;;;;5.80;1.33;;;;;;;9.14;76.53;98496.84;5225410;28;20024;-80
2021/01/21 02:49:52;;;;;;;3.78;1.20;;;;;;;9.15;76.97;98496.72;5224079;28;20318;-79
2021/01/21 02:52:35;;;;;;;3.53;1.23;;;;;;;9.10;77.01;98489.31;5222116;28;20032;-80
2021/01/21 02:55:18;;;;;;;4.97;1.50;;;;;;;9.16;76.62;98484.56;5222867;28;20124;-79
2021/01/21 02:58:13;;;;;;;3.03;1.20;;;;;;;9.12;77.07;98469.19;5222688;28;20032;-79
2021/01/21 03:00:46;;;;;;;3.40;1.40;;;;;;;9.19;76.44;98474.78;5223401;28;20024;-79
2021/01/21 03:03:18;;;;;;;5.10;1.30;;;;;;;9.20;76.75;98478.22;5217369;28;20135;-79
2021/01/21 03:05:52;;;;;;;5.40;1.17;;;;;;;9.18;75.73;98473.09;5222900;28;20048;-79
2021/01/21 03:08:26;;;;;;;3.17;1.20;;;;;;;9.10;78.14;98453.66;5222907;28;20105;-79
2021/01/21 03:11:10;;;;;;;2.47;0.95;;;;;;;9.05;77.65;98465.31;5221659;28;20028;-79
2021/01/21 03:13:44;;;;;;;4.60;1.50;;;;;;;9.12;76.81;98469.19;5222229;28;20035;-80
2021/01/21 03:16:15;;;;;;;6.22;1.23;;;;;;;9.10;76.85;98469.28;5222841;28;20545;-79
2021/01/21 03:18:50;;;;;;;4.30;1.25;;;;;;;9.20;76.12;98455.59;5221798;28;20029;-79
2021/01/21 03:21:20;;;;;;;4.60;1.40;;;;;;;9.17;76.85;98462.78;5222593;28;20074;-80
2021/01/21 03:23:50;;;;;;;3.38;1.10;;;;;;;9.18;76.69;98467.88;5221948;28;20037;-79
2021/01/21 03:26:20;;;;;;;4.30;1.40;;;;;;;9.15;77.20;98447.22;5218049;28;20554;-79
2021/01/21 03:28:51;;;;;;;2.45;1.10;;;;;;;9.14;76.89;98449.94;5223112;28;20098;-79
2021/01/21 03:31:21;;;;;;;4.28;1.30;;;;;;;9.15;76.72;98452.44;5224184;28;20684;-80
2021/01/21 03:33:51;;;;;;;5.00;1.30;;;;;;;9.03;77.79;98451.56;5221859;28;20029;-79
2021/01/21 03:36:21;;;;;;;4.55;1.30;;;;;;;9.06;76.55;98430.53;5222440;28;20053;-79
2021/01/21 03:38:52;;;;;;;3.42;1.00;;;;;;;9.01;77.81;98428.22;5224869;28;20020;-80
2021/01/21 03:41:22;;;;;;;3.35;1.20;;;;;;;8.85;78.83;98426.66;5222063;28;20040;-80
2021/01/21 03:43:52;;;;;;;6.00;1.27;;;;;;;8.78;78.89;98423.63;5221503;28;20079;-80
2021/01/21 03:46:23;;;;;;;3.63;1.50;;;;;;;8.78;79.05;98421.00;5222648;28;20024;-80
2021/01/21 03:48:53;;;;;;;3.80;1.10;;;;;;;8.72;78.73;98426.59;5221607;28;20063;-79
2021/01/21 03:51:24;;;;;;;2.55;1.02;;;;;;;8.76;79.31;98428.06;5222024;28;20539;-81
2021/01/21 03:53:54;;;;;;;3.47;1.20;;;;;;;8.79;78.77;98420.09;5219772;28;20105;-79
2021/01/21 03:56:24;;;;;;;4.28;1.20;;;;;;;8.80;78.98;98416.53;5221970;28;20499;-79
2021/01/21 03:58:55;;;;;;;4.43;1.20;;;;;;;8.66;79.26;98385.31;5221697;28;20060;-79
2021/01/21 04:01:25;;;;;;;2.95;1.20;;;;;;;8.76;78.11;98375.97;5220803;28;20714;-80
2021/01/21 04:03:55;;;;;;;4.07;1.20;;;;;;;8.61;79.35;98371.78;5221494;28;20476;-79
2021/01/21 04:06:26;;;;;;;4.85;1.30;;;;;;;8.46;80.80;98372.72;5225774;28;20043;-79
2021/01/21 04:08:56;;;;;;;4.07;1.20;;;;;;;8.46;80.13;98367.50;5221507;28;20032;-79
2021/01/21 04:11:26;;;;;;;2.83;1.02;;;;;;;8.52;79.79;98371.50;5220978;28;20675;-79
2021/01/21 04:13:57;;;;;;;2.65;1.02;;;;;;;8.42;80.22;98353.00;5220830;28;20707;-79
2021/01/21 04:16:27;;;;;;;3.35;0.98;;;;;;;8.38;80.94;98340.31;5221926;28;20036;-80
2021/01/21 04:18:57;;;;;;;3.75;1.20;;;;;;;8.40;79.72;98341.03;5225110;28;20037;-79
2021/01/21 04:21:27;;;;;;;5.30;1.15;;;;;;;8.44;80.15;98342.50;5225789;28;20667;-79
2021/01/21 04:24:00;;;;;;;3.08;1.20;;;;;;;8.64;78.45;98344.69;5207676;28;20116;-80
2021/01/21 04:26:30;;;;;;;4.70;0.95;;;;;;;8.71;78.65;98340.78;5224249;28;20017;-79
2021/01/21 04:29:00;;;;;;;4.10;1.10;;;;;;;8.69;78.30;98343.47;5225873;28;20028;-80
2021/01/21 04:31:31;;;;;;;3.15;1.30;;;;;;;8.60;78.81;98333.66;5204036;28;20109;-79
2021/01/21 04:34:01;;;;;;;2.28;1.00;;;;;;;8.53;79.08;98336.75;5225085;28;20043;-79
2021/01/21 04:36:31;;;;;;;3.25;0.90;;;;;;;8.67;77.92;98350.53;5225846;28;20032;-78
2021/01/21 04:39:03;;;;;;;2.55;1.10;;;;;;;8.66;78.07;98341.06;5224264;28;20028;-79
2021/01/21 04:41:33;;;;;;;3.72;1.20;;;;;;;8.54;79.53;98338.41;5207854;28;20031;-79
2021/01/21 04:44:03;;;;;;;3.10;1.10;;;;;;;8.41;80.80;98345.31;5225113;28;20472;-79
2021/01/21 04:46:34;;;;;;;4.28;1.20;;;;;;;8.30;79.98;98340.78;5225724;28;20087;-79
2021/01/21 04:49:06;;;;;;;3.60;1.20;;;;;;;8.39;79.20;98350.59;5225630;28;20433;-79
2021/01/21 04:51:38;;;;;;;4.70;1.10;;;;;;;8.77;77.26;98338.63;5225356;28;20043;-79
2021/01/21 04:54:10;;;;;;;3.85;1.20;;;;;;;8.78;77.53;98334.25;5224891;28;20112;-79
2021/01/21 04:56:47;;;;;;;3.95;1.02;;;;;;;9.06;75.44;98316.72;5221906;28;20044;-81
2021/01/21 04:59:19;;;;;;;2.70;1.20;;;;;;;9.25;74.91;98296.31;5231585;28;20465;-80
2021/01/21 05:01:49;;;;;;;2.25;0.95;;;;;;;9.53;72.89;98296.16;5228145;28;20021;-80
2021/01/21 05:04:20;;;;;;;4.28;1.27;;;;;;;9.51;73.24;98277.19;5228138;28;20545;-79
2021/01/21 05:06:52;;;;;;;6.13;1.58;;;;;;;9.43;73.36;98271.63;5207037;28;20025;-80
2021/01/21 05:09:23;;;;;;;4.90;1.33;;;;;;;9.46;72.88;98280.09;5225233;28;20526;-80
2021/01/21 05:11:54;;;;;;;2.17;0.90;;;;;;;9.37;73.66;98285.94;5225301;28;20083;-80
2021/01/21 05:14:24;;;;;;;2.67;0.98;;;;;;;9.72;70.93;98270.50;5223729;28;20517;-79
2021/01/21 05:16:55;;;;;;;2.88;1.10;;;;;;;9.83;71.20;98262.78;5225178;28;20064;-79
2021/01/21 05:19:26;;;;;;;2.33;1.08;;;;;;;9.88;70.90;98261.53;5224675;28;20024;-82
2021/01/21 05:21:59;;;;;;;5.57;1.10;;;;;;;9.99;70.29;98258.16;5224942;28;20056;-79
2021/01/21 05:24:29;;;;;;;3.58;1.10;;;;;;;10.07;69.67;98240.22;5225009;28;20032;-79
2021/01/21 05:27:00;;;;;;;5.63;1.13;;;;;;;10.23;70.10;98225.13;5225133;28;20029;-81
2021/01/21 05:29:30;;;;;;;3.47;1.10;;;;;;;10.25;68.99;98223.25;5223799;28;20031;-81
2021/01/21 05:32:04;;;;;;;2.63;0.90;;;;;;;10.27;69.03;98218.75;5218933;28;20021;-81
2021/01/21 05:34:35;;;;;;;4.18;0.98;;;;;;;10.30;69.27;98226.34;5226408;28;20749;-80
2021/01/21 05:37:10;;;;;;;3.92;1.10;;;;;;;10.34;69.60;98220.81;5224112;28;20043;-79
2021/01/21 05:39:44;;;;;;;3.10;1.02;;;;;;;10.35;69.19;98213.81;5224213;28;20025;-80
2021/01/21 05:42:14;;;;;;;4.05;1.02;;;;;;;10.48;68.57;98240.72;5224181;28;20037;-80
2021/01/21 05:44:45;;;;;;;3.28;1.30;;;;;;;10.42;69.04;98231.53;5224123;28;20028;-80
2021/01/21 05:47:15;;;;;;;4.43;1.30;;;;;;;10.47;68.49;98244.25;5224255;28;20553;-80
2021/01/21 05:49:45;;;;;;;3.55;1.10;;;;;;;10.56;67.60;98238.38;5224889;28;20323;-79
2021/01/21 05:52:18;;;;;;;2.38;1.00;;;;;;;10.44;68.82;98223.59;5223672;28;20036;-79
2021/01/21 05:54:50;;;;;;;3.10;0.90;;;;;;;10.31;68.90;98231.47;5222402;28;20032;-81
2021/01/21 05:57:20;;;;;;;3.35;1.00;;;;;;;10.34;68.53;98226.03;5224159;28;20039;-80
2021/01/21 05:59:50;;;;;;;3.67;1.10;;;;;;;10.19;69.27;98236.75;5225414;28;20021;-81
2021/01/21 06:02:21;;;;;;;3.45;1.10;;;;;;;10.27;68.77;98237.00;5223111;28;20067;-81
2021/01/21 06:04:51;;;;;;;3.88;1.10;;;;;;;10.11;70.30;98232.06;5231365;28;20021;-80
2021/01/21 06:07:22;;;;;;;2.83;1.00;;;;;;;10.01;70.27;98244.09;5223888;28;20025;-80
2021/01/21 06:09:52;;;;;;;3.15;1.08;;;;;;;10.16;69.38;98236.97;5224083;28;20082;-79
2021/01/21 06:12:26;;;;;;;2.53;1.00;;;;;;;9.93;71.40;98228.13;5223192;28;20021;-80
2021/01/21 06:15:00;;;;;;;4.00;1.10;;;;;;;10.04;69.68;98235.22;5223427;28;20021;-79
2021/01/21 06:17:30;;;;;;;6.22;1.00;;;;;;;9.96;70.49;98229.69;5224424;28;20096;-79
2021/01/21 06:20:00;;;;;;;3.28;1.00;;;;;;;9.87;71.16;98238.13;5224024;28;20116;-79
2021/01/21 06:22:34;;;;;;;4.10;0.88;;;;;;;9.81;70.96;98243.78;5223389;28;20075;-79
2021/01/21 06:25:05;;;;;;;3.53;1.20;;;;;;;9.82;70.63;98248.06;5224081;28;20032;-80
2021/01/21 06:27:39;;;;;;;2.90;1.10;;;;;;;9.90;70.52;98253.56;5223308;28;20050;-79
2021/01/21 06:30:20;;;;;;;2.15;0.70;;;;;;;9.75;71.87;98241.59;5223791;28;20047;-80
2021/01/21 06:33:04;;;;;;;4.72;1.00;;;;;;;9.85;70.69;98253.06;5218919;28;20464;-80
2021/01/21 06:36:01;;;;;;;3.10;0.98;;;;;;;9.68;72.65;98256.00;5223152;28;20530;-81
2021/01/21 06:38:39;;;;;;;3.05;1.00;;;;;;;9.80;70.74;98250.78;5222191;28;20061;-81
2021/01/21 06:41:19;;;;;;;2.65;0.98;;;;;;;9.84;70.26;98261.84;5222505;28;20025;-80
2021/01/21 06:43:50;;;;;;;4.25;1.10;;;;;;;9.86;70.66;98259.94;5226659;28;20100;-82
2021/01/21 06:46:20;;;;;;;2.75;0.95;;;;;;;9.70;71.32;98249.75;5227347;28;20530;-81
2021/01/21 06:48:51;;;;;;;3.92;1.00;;;;;;;9.73;71.20;98259.97;5227103;28;20032;-82
2021/01/21 06:51:22;;;;;;;2.20;0.98;;;;;;;9.53;72.91;98259.66;5227938;28;20100;-81
2021/01/21 06:53:54;;;;;;;2.80;1.05;;;;;;;9.58;71.87;98248.00;5225187;28;20017;-81
2021/01/21 06:56:31;;;;;;;3.03;1.20;;;;;;;9.54;72.37;98248.28;5228060;28;20021;-81
2021/01/21 06:59:02;;;;;;;5.18;1.02;;;;;;;9.26;73.95;98245.88;5227372;28;20029;-81
2021/01/21 07:01:32;;;;;;;2.53;0.90;;;;;;;9.19;74.80;98244.63;5226482;28;20029;-81
2021/01/21 07:04:08;;;;;;;3.10;1.10;;;;;;;9.13;74.97;98233.78;5226883;28;20024;-81
2021/01/21 07:06:54;;;;;;;3.45;1.00;;;;;;;9.25;74.57;98239.84;5229400;28;20362;-81
2021/01/21 07:09:26;;;;;;;5.25;1.23;;;;;;;9.20;75.31;98223.69;5228478;28;20047;-81
2021/01/21 07:11:59;;;;;;;2.38;1.00;;;;;;;9.27;74.96;98226.69;5210362;28;20094;-81
2021/01/21 07:14:31;;;;;;;2.30;0.93;;;;;;;9.33;75.58;98231.53;5227002;28;20077;-81
2021/01/21 07:17:05;;;;;;;3.45;1.10;;;;;;;9.34;74.83;98220.16;5227814;28;20346;-81
2021/01/21 07:19:43;;;;;;;2.25;1.00;;;;;;;9.54;73.73;98202.22;5228418;28;20082;-81
2021/01/21 07:22:21;;;;;;;2.55;1.00;;;;;;;9.43;75.46;98206.47;5228551;28;20040;-81
2021/01/21 07:25:05;;;;;;;5.22;1.05;;;;;;;9.49;74.57;98211.28;5228061;28;20430;-81
2021/01/21 07:27:35;;;;;;;2.20;0.77;;;;;;;9.65;74.41;98210.09;5227889;28;20074;-80
2021/01/21 07:30:20;;;;;;;3.50;0.93;;;;;;;9.63;75.41;98212.00;5227383;28;20028;-81
2021/01/21 07:33:19;;;;;;;3.23;1.23;;;;;;;9.69;74.86;98208.13;5225794;28;20051;-80
2021/01/21 07:35:50;;;;;;;2.67;0.93;;;;;;;9.77;74.65;98208.41;5223335;28;20024;-79
2021/01/21 07:38:43;;;;;;;2.15;0.93;;;;;;;9.83;75.27;98214.03;5224177;28;20040;-79
2021/01/21 07:41:41;;;;;;;2.85;0.88;;;;;;;10.10;73.65;98213.88;5224148;28;20064;-79
2021/01/21 07:44:11;;;;;;;2.70;0.80;;;;;;;10.07;74.34;98214.13;5204629;28;20052;-80
2021/01/21 07:46:42;;;;;;;5.18;0.95;;;;;;;10.04;74.68;98209.13;5222915;28;20102;-80
2021/01/21 07:49:26;;;;;;;2.55;0.80;;;;;;;9.92;75.15;98204.72;5222676;28;20025;-80
2021/01/21 07:52:06;;;;;;;2.95;0.93;;;;;;;10.06;74.75;98215.91;5217753;28;20036;-80
2021/01/21 07:54:49;;;;;;;2.20;0.90;;;;;;;10.23;74.33;98209.47;5221223;28;20537;-80
2021/01/21 07:57:21;;;;;;;2.63;0.88;;;;;;;10.31;74.68;98201.94;5222783;28;20082;-80
2021/01/21 08:00:03;;;;;;;2.80;0.88;;;;;;;10.31;74.11;98222.81;5222470;28;20025;-80
2021/01/21 08:02:50;;;;;;;1.77;0.80;;;;;;;10.31;74.75;98233.25;5222232;28;20033;-80
2021/01/21 08:05:23;;;;;;;4.93;1.00;;;;;;;10.38;74.09;98235.28;5225249;28;20445;-80
2021/01/21 08:07:59;;;;;;;2.50;0.90;;;;;;;10.42;74.24;98233.31;5221786;28;20081;-80
2021/01/21 08:10:32;;;;;;;3.35;0.90;;;;;;;10.50;73.75;98238.81;5222317;28;20051;-80
2021/01/21 08:13:14;;;;;;;3.85;0.95;;;;;;;10.55;73.92;98247.16;5221453;28;20086;-80
2021/01/21 08:15:46;;;;;;;2.10;0.77;;;;;;;10.93;73.74;98253.00;5222604;28;20085;-80
2021/01/21 08:18:16;;;;;;;3.28;0.80;;;;;;;11.25;72.64;98260.94;5222662;28;20111;-80
2021/01/21 08:20:47;;;;;;;2.10;0.88;;;;;;;11.76;70.01;98272.72;5222508;28;20716;-80
2021/01/21 08:23:17;;;;;;;2.28;0.70;;;;;;;11.87;70.03;98267.50;5222733;28;20104;-80
2021/01/21 08:25:49;;;;;;;2.10;0.70;;;;;;;11.61;71.40;98276.50;5222769;28;20020;-80
2021/01/21 08:28:21;;;;;;;1.88;0.70;;;;;;;11.29;71.82;98262.38;5223580;28;20036;-80
2021/01/21 08:30:51;;;;;;;2.38;0.70;;;;;;;11.13;72.65;98292.41;5222962;28;20112;-80
2021/01/21 08:33:28;;;;;;;1.60;0.70;;;;;;;12.23;70.54;98303.91;5221450;28;20432;-80
2021/01/21 08:36:04;;;;;;;2.05;0.85;;;;;;;13.20;67.04;98297.72;5223752;28;20021;-81
2021/01/21 08:38:40;;;;;;;2.10;0.90;;;;;;;13.56;65.76;98313.03;5223230;28;20104;-82
2021/01/21 08:41:15;;;;;;;3.42;0.80;;;;;;;13.03;66.98;98324.50;5223017;28;20029;-82
2021/01/21 08:43:46;;;;;;;3.60;0.77;;;;;;;12.71;67.98;98333.25;5227337;28;20033;-82
2021/01/21 08:46:21;;;;;;;3.80;0.80;;;;;;;12.38;69.24;98331.50;5221760;28;20430;-82
2021/01/21 08:48:51;;;;;;;2.38;0.60;;;;;;;12.07;70.31;98357.56;5222419;28;20057;-82
2021/01/21 08:51:41;;;;;;;2.78;0.73;;;;;;;11.75;71.88;98375.72;5225083;28;20510;-81
2021/01/21 08:54:21;;;;;;;1.58;0.60;;;;;;;11.59;73.00;98385.66;5225928;28;20067;-82
2021/01/21 08:57:08;;;;;;;3.97;0.75;;;;;;;11.41;75.15;98436.69;5225869;28;20020;-82
2021/01/21 08:59:39;;;;;;;4.20;0.40;;;;;;;9.69;83.44;98476.72;5225100;28;20025;-81
2021/01/21 09:02:09;;;;;;;3.60;0.47;;;;;;;8.97;88.58;98483.19;5229772;28;20051;-82
2021/01/21 09:04:41;;;;;;;0.80;0.30;;;;;;;8.25;91.22;98498.91;5233984;28;20025;-82
2021/01/21 09:07:23;;;;;;;1.75;0.22;;;;;;;8.10;92.98;98510.22;5238832;28;20643;-81
2021/01/21 09:09:55;;;;;;;2.22;0.40;;;;;;;7.84;93.71;98518.66;5239367;28;20562;-81
2021/01/21 09:12:26;;;;;;;1.77;0.47;;;;;;;7.77;94.21;98517.34;5240214;28;20017;-82
2021/01/21 09:15:10;;;;;;;1.45;0.30;;;;;;;7.70;94.66;98523.81;5236410;28;20043;-81
2021/01/21 09:17:41;;;;;;;2.60;0.50;;;;;;;7.66;93.67;98532.72;5230884;28;20164;-81
2021/01/21 09:20:24;;;;;;;0.57;0.20;;;;;;;7.68;92.85;98537.84;5231057;28;20048;-81
2021/01/21 09:22:54;;;;;;;0.57;0.20;;;;;;;7.65;92.15;98533.63;5230357;28;20051;-81
2021/01/21 09:25:27;;;;;;;1.33;0.30;;;;;;;7.64;90.81;98568.34;5229403;28;20029;-81
2021/01/21 09:27:57;;;;;;;2.15;0.43;;;;;;;7.62;89.76;98556.34;5231176;28;20057;-81
2021/01/21 09:30:28;;;;;;;1.88;0.60;;;;;;;7.63;88.80;98564.09;5229078;28;20033;-81
2021/01/21 09:32:58;;;;;;;3.90;1.83;;;;;;;7.75;86.68;98563.41;5224719;28;20017;-81
2021/01/21 09:35:28;;;;;;;5.38;2.10;;;;;;;7.75;85.57;98549.56;5222241;28;20017;-81
2021/01/21 09:37:59;;;;;;;0.40;0.30;;;;;;;7.77;85.42;98569.34;5223836;28;20071;-81
2021/01/21 09:40:31;;;;;;;0.73;0.20;;;;;;;7.80;84.55;98574.38;5224276;28;20043;-81
2021/01/21 09:43:04;;;;;;;0.65;0.20;;;;;;;7.85;85.20;98582.75;5205268;28;20634;-81
2021/01/21 09:45:34;;;;;;;1.52;0.20;;;;;;;7.81;85.91;98575.19;5224943;28;20109;-81
2021/01/21 09:48:05;;;;;;;1.27;0.20;;;;;;;7.83;85.85;98579.41;5225522;28;20446;-81
2021/01/21 09:50:35;;;;;;;1.08;0.30;;;;;;;7.94;85.99;98579.63;5220278;28;20029;-81
2021/01/21 09:53:05;;;;;;;0.75;0.30;;;;;;;7.94;86.34;98581.38;5228564;28;20530;-81
2021/01/21 09:55:36;;;;;;;1.20;0.30;;;;;;;7.84;87.50;98580.25;5223467;28;20060;-81
2021/01/21 09:58:06;;;;;;;1.80;0.40;;;;;;;7.91;85.20;98594.56;5239165;28;20032;-81
2021/01/21 10:00:36;;;;;;;2.63;0.90;;;;;;;8.01;84.25;98587.94;5233543;28;20442;-81
2021/01/21 10:03:07;;;;;;;2.72;0.80;;;;;;;8.05;83.76;98590.25;5233755;28;20027;-81
2021/01/21 10:05:37;;;;;;;3.65;0.90;;;;;;;8.06;81.78;98591.91;5238494;28;20024;-81
2021/01/21 10:08:07;;;;;;;4.78;1.20;;;;;;;8.19;81.34;98592.94;5224090;28;20029;-81
2021/01/21 10:10:38;;;;;;;5.60;0.90;;;;;;;8.17;80.55;98601.72;5224275;28;20060;-81
2021/01/21 10:13:08;;;;;;;3.00;0.80;;;;;;;8.22;77.75;98604.94;5223230;28;20103;-81
2021/01/21 10:15:38;;;;;;;3.42;0.90;;;;;;;8.19;76.96;98595.53;5223343;28;20029;-80
2021/01/21 10:18:09;;;;;;;5.13;0.70;;;;;;;8.05;76.92;98598.06;5222762;28;20100;-81
2021/01/21 10:20:39;;;;;;;3.65;0.75;;;;;;;8.21;77.72;98604.09;5223045;28;20458;-81
2021/01/21 10:23:09;;;;;;;5.30;1.30;;;;;;;8.20;76.64;98594.59;5223802;28;20021;-81
2021/01/21 10:25:39;;;;;;;4.75;1.20;;;;;;;8.10;76.82;98588.25;5203591;28;20280;-81
2021/01/21 10:28:10;;;;;;;7.57;1.80;;;;;;;8.18;76.41;98580.84;5223299;28;20039;-81
2021/01/21 10:30:40;;;;;;;7.72;1.65;;;;;;;8.22;76.75;98592.75;5224613;28;20045;-81
2021/01/21 10:33:10;;;;;;;4.75;1.15;;;;;;;8.30;76.17;98600.13;5225694;28;20047;-81
2021/01/21 10:35:40;;;;;;;5.75;1.30;;;;;;;8.31;76.50;98586.19;5222128;28;20031;-81
2021/01/21 10:38:11;;;;;;;4.35;1.42;;;;;;;8.26;75.92;98594.28;5225314;28;20060;-81
2021/01/21 10:40:41;;;;;;;5.95;1.88;;;;;;;8.19;74.84;98590.34;5224684;28;20032;-81
2021/01/21 10:43:11;;;;;;;2.22;1.05;;;;;;;8.30;75.60;98597.50;5224920;28;20025;-81
2021/01/21 10:45:42;;;;;;;0.98;0.20;;;;;;;8.33;76.05;98590.38;5205559;28;20025;-81
2021/01/21 10:48:12;;;;;;;0.82;0.40;;;;;;;8.19;75.62;98579.09;5227454;28;20080;-81
2021/01/21 10:50:43;;;;;;;1.45;0.40;;;;;;;8.11;75.37;98595.13;5227231;28;20028;-81
2021/01/21 10:53:13;;;;;;;1.90;0.52;;;;;;;8.06;76.72;98597.13;5225127;28;20025;-81
2021/01/21 10:55:43;;;;;;;1.38;0.40;;;;;;;8.05;76.98;98611.06;5224604;28;20021;-81
2021/01/21 10:58:14;;;;;;;0.32;0.20;;;;;;;8.11;77.61;98630.69;5225309;28;20071;-79
2021/01/21 11:00:44;;;;;;;1.00;0.30;;;;;;;8.10;77.13;98606.44;5222359;28;20029;-80
2021/01/21 11:03:15;;;;;;;0.82;0.20;;;;;;;8.06;78.96;98611.91;5220290;28;20032;-80
2021/01/21 11:05:46;;;;;;;1.48;0.20;;;;;;;8.06;79.90;98622.31;5206616;28;20262;-80
2021/01/21 11:08:16;;;;;;;0.73;0.10;;;;;;;8.03;79.76;98607.72;5232389;28;20040;-80
2021/01/21 11:10:46;;;;;;;0.88;0.20;;;;;;;8.23;81.87;98604.00;5217415;28;20009;-80
2021/01/21 11:13:17;;;;;;;0.20;0.13;;;;;;;8.41;81.27;98614.19;5225290;28;20119;-80
2021/01/21 11:15:48;;;;;;;1.27;0.30;;;;;;;8.40;81.15;98570.88;5228377;28;20036;-80
2021/01/21 11:18:18;;;;;;;0.75;0.22;;;;;;;8.34;81.82;98563.44;5232617;28;20033;-80
2021/01/21 11:20:49;;;;;;;0.98;0.28;;;;;;;8.17;82.45;98566.13;5224891;28;20052;-80
2021/01/21 11:23:19;;;;;;;0.55;0.20;;;;;;;8.09;82.28;98565.75;5222392;28;20100;-80
2021/01/21 11:25:50;;;;;;;0.65;0.20;;;;;;;7.91;82.47;98556.38;5223137;28;20024;-79
2021/01/21 11:28:21;;;;;;;1.13;0.30;;;;;;;7.88;83.38;98585.16;5216967;28;20021;-80
2021/01/21 11:30:51;;;;;;;3.10;0.70;;;;;;;7.76;84.28;98593.69;5222137;28;20016;-80
2021/01/21 11:33:21;;;;;;;1.30;0.47;;;;;;;7.79;84.77;98595.25;5227524;28;20556;-80
2021/01/21 11:35:54;;;;;;;1.02;0.17;;;;;;;7.84;85.50;98622.66;5221122;28;20033;-79
2021/01/21 11:38:24;;;;;;;0.52;0.20;;;;;;;7.98;83.58;98617.53;5213675;28;20076;-79
2021/01/21 11:40:54;;;;;;;1.50;0.28;;;;;;;8.11;82.48;98620.28;5222419;28;20061;-80
2021/01/21 11:43:24;;;;;;;2.10;0.30;;;;;;;8.20;80.76;98636.22;5220446;28;20407;-80
2021/01/21 11:45:55;;;;;;;0.65;0.28;;;;;;;8.14;80.98;98631.34;5223412;28;20371;-80
2021/01/21 11:48:25;;;;;;;0.55;0.30;;;;;;;8.17;80.35;98617.31;5225752;28;20040;-80
2021/01/21 11:50:56;;;;;;;0.73;0.20;;;;;;;8.20;81.12;98604.19;5223939;28;20668;-80
2021/01/21 11:53:26;;;;;;;2.95;0.57;;;;;;;8.36;79.41;98607.59;5225537;28;20032;-80
2021/01/21 11:55:57;;;;;;;1.08;0.32;;;;;;;8.34;79.49;98606.81;5225030;28;20087;-80
2021/01/21 11:58:27;;;;;;;2.83;0.10;;;;;;;8.37;79.62;98612.69;5225188;28;20525;-80
2021/01/21 12:00:58;;;;;;;1.00;0.25;;;;;;;8.32;80.12;98593.91;5225917;28;20082;-81
2021/01/21 12:03:29;;;;;;;1.52;0.30;;;;;;;8.46;80.86;98570.53;5224652;28;20029;-81
2021/01/21 12:06:01;;;;;;;4.75;0.50;;;;;;;8.45;80.54;98581.88;5222357;28;20083;-80
2021/01/21 12:08:31;;;;;;;2.38;0.40;;;;;;;8.25;79.34;98569.16;5204057;28;20040;-79